sensor_id;sensor_type;location;lat;lon;timestamp;temperature;humidity
28763;DHT22;15918;51.270;6.522;2023-12-14T00:00:25;11.90;78.00
28763;DHT22;15918;51.270;6.522;2023-12-14T00:02:50;11.90;78.10
28763;DHT22;15918;51.270;6.522;2023-12-14T00:05:16;11.90;78.10
28763;DHT22;15918;51.270;6.522;2023-12-14T00:07:41;11.90;78.10
28763;DHT22;15918;51.270;6.522;2023-12-14T00:10:07;11.90;78.20
28763;DHT22;15918;51.270;6.522;2023-12-14T00:12:33;11.90;78.10
28763;DHT22;15918;51.270;6.522;2023-12-14T00:14:59;11.90;78.20
28763;DHT22;15918;51.270;6.522;2023-12-14T00:17:24;11.90;78.20
28763;DHT22;15918;51.270;6.522;2023-12-14T00:19:50;11.90;78.20
28763;DHT22;15918;51.270;6.522;2023-12-14T00:22:15;11.90;78.20
28763;DHT22;15918;51.270;6.522;2023-12-14T00:24:41;11.90;78.20
28763;DHT22;15918;51.270;6.522;2023-12-14T00:27:07;11.90;78.20
28763;DHT22;15918;51.270;6.522;2023-12-14T00:29:33;11.90;78.20
28763;DHT22;15918;51.270;6.522;2023-12-14T00:31:58;11.90;78.20
28763;DHT22;15918;51.270;6.522;2023-12-14T00:34:24;11.90;78.20
28763;DHT22;15918;51.270;6.522;2023-12-14T00:36:49;11.90;78.20
28763;DHT22;15918;51.270;6.522;2023-12-14T00:39:15;11.90;78.20
28763;DHT22;15918;51.270;6.522;2023-12-14T00:41:41;11.90;78.20
28763;DHT22;15918;51.270;6.522;2023-12-14T00:44:06;11.90;78.20
28763;DHT22;15918;51.270;6.522;2023-12-14T00:46:32;11.90;78.20
28763;DHT22;15918;51.270;6.522;2023-12-14T00:48:57;11.90;78.20
28763;DHT22;15918;51.270;6.522;2023-12-14T00:51:23;11.90;78.20
28763;DHT22;15918;51.270;6.522;2023-12-14T00:53:48;11.90;78.20
28763;DHT22;15918;51.270;6.522;2023-12-14T00:56:14;11.90;78.10
28763;DHT22;15918;51.270;6.522;2023-12-14T00:58:39;11.90;78.10
28763;DHT22;15918;51.270;6.522;2023-12-14T01:01:05;11.90;78.10
28763;DHT22;15918;51.270;6.522;2023-12-14T01:03:31;11.90;78.10
28763;DHT22;15918;51.270;6.522;2023-12-14T01:05:56;11.90;78.00
28763;DHT22;15918;51.270;6.522;2023-12-14T01:08:22;11.90;78.00
28763;DHT22;15918;51.270;6.522;2023-12-14T01:10:48;11.90;78.00
28763;DHT22;15918;51.270;6.522;2023-12-14T01:13:13;11.90;78.00
28763;DHT22;15918;51.270;6.522;2023-12-14T01:15:39;11.90;78.00
28763;DHT22;15918;51.270;6.522;2023-12-14T01:18:04;11.90;78.00
28763;DHT22;15918;51.270;6.522;2023-12-14T01:20:30;11.90;77.90
28763;DHT22;15918;51.270;6.522;2023-12-14T01:22:56;11.90;77.90
28763;DHT22;15918;51.270;6.522;2023-12-14T01:25:21;11.90;77.80
28763;DHT22;15918;51.270;6.522;2023-12-14T01:27:47;11.90;77.80
28763;DHT22;15918;51.270;6.522;2023-12-14T01:30:12;11.90;77.80
28763;DHT22;15918;51.270;6.522;2023-12-14T01:32:38;11.90;77.80
28763;DHT22;15918;51.270;6.522;2023-12-14T01:35:04;11.90;77.80
28763;DHT22;15918;51.270;6.522;2023-12-14T01:37:30;11.80;77.70
28763;DHT22;15918;51.270;6.522;2023-12-14T01:39:55;11.90;77.80
28763;DHT22;15918;51.270;6.522;2023-12-14T01:42:21;11.90;77.80
28763;DHT22;15918;51.270;6.522;2023-12-14T01:44:47;11.80;77.70
28763;DHT22;15918;51.270;6.522;2023-12-14T01:47:12;11.80;77.60
28763;DHT22;15918;51.270;6.522;2023-12-14T01:49:38;11.80;77.60
28763;DHT22;15918;51.270;6.522;2023-12-14T01:52:04;11.90;77.60
28763;DHT22;15918;51.270;6.522;2023-12-14T01:54:30;11.90;77.60
28763;DHT22;15918;51.270;6.522;2023-12-14T01:56:56;11.80;77.50
28763;DHT22;15918;51.270;6.522;2023-12-14T01:59:22;11.80;77.50
28763;DHT22;15918;51.270;6.522;2023-12-14T02:01:52;11.80;77.40
28763;DHT22;15918;51.270;6.522;2023-12-14T02:04:18;11.80;77.30
28763;DHT22;15918;51.270;6.522;2023-12-14T02:06:44;11.80;77.50
28763;DHT22;15918;51.270;6.522;2023-12-14T02:09:09;11.80;77.30
28763;DHT22;15918;51.270;6.522;2023-12-14T02:11:35;11.80;77.30
28763;DHT22;15918;51.270;6.522;2023-12-14T02:14:05;11.80;77.30
28763;DHT22;15918;51.270;6.522;2023-12-14T02:16:31;11.80;77.20
28763;DHT22;15918;51.270;6.522;2023-12-14T02:18:57;11.80;77.30
28763;DHT22;15918;51.270;6.522;2023-12-14T02:21:23;11.80;77.20
28763;DHT22;15918;51.270;6.522;2023-12-14T02:23:48;11.80;77.10
28763;DHT22;15918;51.270;6.522;2023-12-14T02:26:14;11.80;77.10
28763;DHT22;15918;51.270;6.522;2023-12-14T02:28:40;11.80;77.10
28763;DHT22;15918;51.270;6.522;2023-12-14T02:31:05;11.70;77.00
28763;DHT22;15918;51.270;6.522;2023-12-14T02:33:31;11.80;77.10
28763;DHT22;15918;51.270;6.522;2023-12-14T02:35:57;11.80;77.10
28763;DHT22;15918;51.270;6.522;2023-12-14T02:38:29;11.70;77.00
28763;DHT22;15918;51.270;6.522;2023-12-14T02:40:55;11.80;76.90
28763;DHT22;15918;51.270;6.522;2023-12-14T02:43:20;11.80;77.10
28763;DHT22;15918;51.270;6.522;2023-12-14T02:45:46;11.80;77.00
28763;DHT22;15918;51.270;6.522;2023-12-14T02:48:12;11.80;77.00
28763;DHT22;15918;51.270;6.522;2023-12-14T02:50:38;11.70;76.90
28763;DHT22;15918;51.270;6.522;2023-12-14T02:53:03;11.80;77.00
28763;DHT22;15918;51.270;6.522;2023-12-14T02:55:29;11.70;76.80
28763;DHT22;15918;51.270;6.522;2023-12-14T02:57:54;11.70;76.90
28763;DHT22;15918;51.270;6.522;2023-12-14T03:00:20;11.70;76.80
28763;DHT22;15918;51.270;6.522;2023-12-14T03:02:46;11.70;76.80
28763;DHT22;15918;51.270;6.522;2023-12-14T03:05:11;11.70;76.70
28763;DHT22;15918;51.270;6.522;2023-12-14T03:07:37;11.70;76.70
28763;DHT22;15918;51.270;6.522;2023-12-14T03:10:03;11.70;76.60
28763;DHT22;15918;51.270;6.522;2023-12-14T03:12:29;11.70;76.50
28763;DHT22;15918;51.270;6.522;2023-12-14T03:14:55;11.70;76.50
28763;DHT22;15918;51.270;6.522;2023-12-14T03:17:20;11.70;76.50
28763;DHT22;15918;51.270;6.522;2023-12-14T03:19:46;11.70;76.40
28763;DHT22;15918;51.270;6.522;2023-12-14T03:22:12;11.70;76.40
28763;DHT22;15918;51.270;6.522;2023-12-14T03:24:38;11.70;76.30
28763;DHT22;15918;51.270;6.522;2023-12-14T03:27:04;11.70;76.20
28763;DHT22;15918;51.270;6.522;2023-12-14T03:29:30;11.70;76.20
28763;DHT22;15918;51.270;6.522;2023-12-14T03:31:56;11.70;76.20
28763;DHT22;15918;51.270;6.522;2023-12-14T03:34:22;11.70;76.20
28763;DHT22;15918;51.270;6.522;2023-12-14T03:36:48;11.70;76.20
28763;DHT22;15918;51.270;6.522;2023-12-14T03:39:14;11.70;76.30
28763;DHT22;15918;51.270;6.522;2023-12-14T03:41:42;11.70;76.20
28763;DHT22;15918;51.270;6.522;2023-12-14T03:44:07;11.70;76.20
28763;DHT22;15918;51.270;6.522;2023-12-14T03:46:33;11.70;76.10
28763;DHT22;15918;51.270;6.522;2023-12-14T03:48:59;11.60;76.10
28763;DHT22;15918;51.270;6.522;2023-12-14T03:51:25;11.60;76.10
28763;DHT22;15918;51.270;6.522;2023-12-14T03:53:51;11.60;76.00
28763;DHT22;15918;51.270;6.522;2023-12-14T03:56:16;11.60;76.10
28763;DHT22;15918;51.270;6.522;2023-12-14T03:58:42;11.60;76.10
28763;DHT22;15918;51.270;6.522;2023-12-14T04:01:07;11.60;76.00
28763;DHT22;15918;51.270;6.522;2023-12-14T04:03:33;11.60;76.00
28763;DHT22;15918;51.270;6.522;2023-12-14T04:05:58;11.60;76.00
28763;DHT22;15918;51.270;6.522;2023-12-14T04:08:24;11.60;75.90
28763;DHT22;15918;51.270;6.522;2023-12-14T04:10:50;11.60;75.80
28763;DHT22;15918;51.270;6.522;2023-12-14T04:13:15;11.60;75.80
28763;DHT22;15918;51.270;6.522;2023-12-14T04:15:41;11.60;75.80
28763;DHT22;15918;51.270;6.522;2023-12-14T04:18:07;11.60;75.80
28763;DHT22;15918;51.270;6.522;2023-12-14T04:20:33;11.60;75.70
28763;DHT22;15918;51.270;6.522;2023-12-14T04:22:59;11.60;75.70
28763;DHT22;15918;51.270;6.522;2023-12-14T04:25:24;11.60;75.70
28763;DHT22;15918;51.270;6.522;2023-12-14T04:27:50;11.50;75.60
28763;DHT22;15918;51.270;6.522;2023-12-14T04:30:16;11.50;75.60
28763;DHT22;15918;51.270;6.522;2023-12-14T04:32:41;11.50;75.60
28763;DHT22;15918;51.270;6.522;2023-12-14T04:35:07;11.50;75.50
28763;DHT22;15918;51.270;6.522;2023-12-14T04:37:33;11.50;75.40
28763;DHT22;15918;51.270;6.522;2023-12-14T04:39:59;11.50;75.40
28763;DHT22;15918;51.270;6.522;2023-12-14T04:42:25;11.50;75.40
28763;DHT22;15918;51.270;6.522;2023-12-14T04:44:50;11.50;75.30
28763;DHT22;15918;51.270;6.522;2023-12-14T04:47:16;11.50;75.40
28763;DHT22;15918;51.270;6.522;2023-12-14T04:49:41;11.50;75.40
28763;DHT22;15918;51.270;6.522;2023-12-14T04:52:07;11.60;75.30
28763;DHT22;15918;51.270;6.522;2023-12-14T04:54:35;11.50;75.20
28763;DHT22;15918;51.270;6.522;2023-12-14T04:57:03;11.50;75.20
28763;DHT22;15918;51.270;6.522;2023-12-14T04:59:29;11.50;75.20
28763;DHT22;15918;51.270;6.522;2023-12-14T05:01:54;11.50;75.20
28763;DHT22;15918;51.270;6.522;2023-12-14T05:04:20;11.40;75.20
28763;DHT22;15918;51.270;6.522;2023-12-14T05:06:46;11.50;75.20
28763;DHT22;15918;51.270;6.522;2023-12-14T05:09:11;11.50;75.20
28763;DHT22;15918;51.270;6.522;2023-12-14T05:11:39;11.50;75.20
28763;DHT22;15918;51.270;6.522;2023-12-14T05:14:05;11.50;75.00
28763;DHT22;15918;51.270;6.522;2023-12-14T05:16:30;11.50;75.00
28763;DHT22;15918;51.270;6.522;2023-12-14T05:18:56;11.50;75.00
28763;DHT22;15918;51.270;6.522;2023-12-14T05:21:24;11.50;75.10
28763;DHT22;15918;51.270;6.522;2023-12-14T05:23:50;11.50;75.10
28763;DHT22;15918;51.270;6.522;2023-12-14T05:26:16;11.40;75.10
28763;DHT22;15918;51.270;6.522;2023-12-14T05:28:42;11.40;75.00
28763;DHT22;15918;51.270;6.522;2023-12-14T05:31:08;11.40;75.00
28763;DHT22;15918;51.270;6.522;2023-12-14T05:33:37;11.40;75.00
28763;DHT22;15918;51.270;6.522;2023-12-14T05:36:03;11.50;75.00
28763;DHT22;15918;51.270;6.522;2023-12-14T05:38:34;11.40;75.00
28763;DHT22;15918;51.270;6.522;2023-12-14T05:40:59;11.40;75.00
28763;DHT22;15918;51.270;6.522;2023-12-14T05:43:25;11.40;75.00
28763;DHT22;15918;51.270;6.522;2023-12-14T05:45:51;11.40;75.00
28763;DHT22;15918;51.270;6.522;2023-12-14T05:48:16;11.40;75.00
28763;DHT22;15918;51.270;6.522;2023-12-14T05:50:42;11.40;74.90
28763;DHT22;15918;51.270;6.522;2023-12-14T05:53:07;11.40;74.90
28763;DHT22;15918;51.270;6.522;2023-12-14T05:55:33;11.40;74.90
28763;DHT22;15918;51.270;6.522;2023-12-14T05:57:58;11.40;75.00
28763;DHT22;15918;51.270;6.522;2023-12-14T06:00:24;11.40;74.90
28763;DHT22;15918;51.270;6.522;2023-12-14T06:02:49;11.40;74.90
28763;DHT22;15918;51.270;6.522;2023-12-14T06:05:15;11.40;74.80
28763;DHT22;15918;51.270;6.522;2023-12-14T06:07:41;11.40;74.80
28763;DHT22;15918;51.270;6.522;2023-12-14T06:10:06;11.40;74.90
28763;DHT22;15918;51.270;6.522;2023-12-14T06:12:32;11.40;74.90
28763;DHT22;15918;51.270;6.522;2023-12-14T06:14:58;11.40;74.90
28763;DHT22;15918;51.270;6.522;2023-12-14T06:17:23;11.40;74.90
28763;DHT22;15918;51.270;6.522;2023-12-14T06:19:49;11.40;74.90
28763;DHT22;15918;51.270;6.522;2023-12-14T06:22:14;11.40;74.90
28763;DHT22;15918;51.270;6.522;2023-12-14T06:24:40;11.30;74.80
28763;DHT22;15918;51.270;6.522;2023-12-14T06:27:07;11.30;74.80
28763;DHT22;15918;51.270;6.522;2023-12-14T06:29:32;11.30;74.70
28763;DHT22;15918;51.270;6.522;2023-12-14T06:31:58;11.30;74.60
28763;DHT22;15918;51.270;6.522;2023-12-14T06:34:23;11.30;74.60
28763;DHT22;15918;51.270;6.522;2023-12-14T06:36:49;11.30;74.50
28763;DHT22;15918;51.270;6.522;2023-12-14T06:39:15;11.30;74.50
28763;DHT22;15918;51.270;6.522;2023-12-14T06:41:41;11.30;74.60
28763;DHT22;15918;51.270;6.522;2023-12-14T06:44:07;11.30;74.60
28763;DHT22;15918;51.270;6.522;2023-12-14T06:46:34;11.40;74.70
28763;DHT22;15918;51.270;6.522;2023-12-14T06:49:00;11.30;74.60
28763;DHT22;15918;51.270;6.522;2023-12-14T06:51:25;11.30;74.60
28763;DHT22;15918;51.270;6.522;2023-12-14T06:53:51;11.30;74.50
28763;DHT22;15918;51.270;6.522;2023-12-14T06:56:16;11.30;74.40
28763;DHT22;15918;51.270;6.522;2023-12-14T06:58:44;11.30;74.40
28763;DHT22;15918;51.270;6.522;2023-12-14T07:01:14;11.30;74.40
28763;DHT22;15918;51.270;6.522;2023-12-14T07:03:40;11.30;74.20
28763;DHT22;15918;51.270;6.522;2023-12-14T07:06:07;11.30;74.30
28763;DHT22;15918;51.270;6.522;2023-12-14T07:08:33;11.30;74.20
28763;DHT22;15918;51.270;6.522;2023-12-14T07:10:58;11.20;74.20
28763;DHT22;15918;51.270;6.522;2023-12-14T07:13:24;11.30;74.20
28763;DHT22;15918;51.270;6.522;2023-12-14T07:15:51;11.30;74.20
28763;DHT22;15918;51.270;6.522;2023-12-14T07:18:17;11.20;74.00
28763;DHT22;15918;51.270;6.522;2023-12-14T07:20:42;11.20;74.10
28763;DHT22;15918;51.270;6.522;2023-12-14T07:23:08;11.20;74.10
28763;DHT22;15918;51.270;6.522;2023-12-14T07:25:33;11.20;74.10
28763;DHT22;15918;51.270;6.522;2023-12-14T07:27:59;11.20;74.10
28763;DHT22;15918;51.270;6.522;2023-12-14T07:30:28;11.20;74.10
28763;DHT22;15918;51.270;6.522;2023-12-14T07:32:53;11.20;73.90
28763;DHT22;15918;51.270;6.522;2023-12-14T07:35:19;11.20;73.90
28763;DHT22;15918;51.270;6.522;2023-12-14T07:37:45;11.20;73.90
28763;DHT22;15918;51.270;6.522;2023-12-14T07:40:10;11.20;73.90
28763;DHT22;15918;51.270;6.522;2023-12-14T07:42:36;11.20;73.90
28763;DHT22;15918;51.270;6.522;2023-12-14T07:45:02;11.20;73.90
28763;DHT22;15918;51.270;6.522;2023-12-14T07:47:28;11.20;73.80
28763;DHT22;15918;51.270;6.522;2023-12-14T07:49:53;11.20;73.80
28763;DHT22;15918;51.270;6.522;2023-12-14T07:52:20;11.20;73.80
28763;DHT22;15918;51.270;6.522;2023-12-14T07:54:45;11.20;73.80
28763;DHT22;15918;51.270;6.522;2023-12-14T07:57:11;11.20;73.80
28763;DHT22;15918;51.270;6.522;2023-12-14T07:59:36;11.20;73.80
28763;DHT22;15918;51.270;6.522;2023-12-14T08:02:02;11.20;73.60
28763;DHT22;15918;51.270;6.522;2023-12-14T08:04:27;11.20;73.60
28763;DHT22;15918;51.270;6.522;2023-12-14T08:06:53;11.20;73.60
28763;DHT22;15918;51.270;6.522;2023-12-14T08:09:18;11.20;73.60
28763;DHT22;15918;51.270;6.522;2023-12-14T08:11:44;11.10;73.50
28763;DHT22;15918;51.270;6.522;2023-12-14T08:14:10;11.10;73.50
28763;DHT22;15918;51.270;6.522;2023-12-14T08:16:35;11.10;73.50
28763;DHT22;15918;51.270;6.522;2023-12-14T08:19:01;11.10;73.50
28763;DHT22;15918;51.270;6.522;2023-12-14T08:21:27;11.10;73.40
28763;DHT22;15918;51.270;6.522;2023-12-14T08:23:52;11.10;73.40
28763;DHT22;15918;51.270;6.522;2023-12-14T08:26:18;11.10;73.50
28763;DHT22;15918;51.270;6.522;2023-12-14T08:28:43;11.10;73.50
28763;DHT22;15918;51.270;6.522;2023-12-14T08:31:09;11.10;73.40
28763;DHT22;15918;51.270;6.522;2023-12-14T08:33:37;11.10;73.30
28763;DHT22;15918;51.270;6.522;2023-12-14T08:36:03;11.10;73.30
28763;DHT22;15918;51.270;6.522;2023-12-14T08:38:30;11.10;73.30
28763;DHT22;15918;51.270;6.522;2023-12-14T08:40:56;11.10;73.20
28763;DHT22;15918;51.270;6.522;2023-12-14T08:43:21;11.10;73.20
28763;DHT22;15918;51.270;6.522;2023-12-14T08:45:47;11.10;73.30
28763;DHT22;15918;51.270;6.522;2023-12-14T08:48:14;11.10;73.30
28763;DHT22;15918;51.270;6.522;2023-12-14T08:50:39;11.10;73.20
28763;DHT22;15918;51.270;6.522;2023-12-14T08:53:05;11.10;73.30
28763;DHT22;15918;51.270;6.522;2023-12-14T08:55:31;11.10;73.20
28763;DHT22;15918;51.270;6.522;2023-12-14T08:57:57;11.10;73.10
28763;DHT22;15918;51.270;6.522;2023-12-14T09:00:22;11.10;73.10
28763;DHT22;15918;51.270;6.522;2023-12-14T09:02:49;11.10;73.10
28763;DHT22;15918;51.270;6.522;2023-12-14T09:05:15;11.10;73.10
28763;DHT22;15918;51.270;6.522;2023-12-14T09:07:42;11.10;73.10
28763;DHT22;15918;51.270;6.522;2023-12-14T09:10:08;11.10;73.00
28763;DHT22;15918;51.270;6.522;2023-12-14T09:12:34;11.00;73.00
28763;DHT22;15918;51.270;6.522;2023-12-14T09:15:00;11.00;73.00
28763;DHT22;15918;51.270;6.522;2023-12-14T09:17:26;11.00;73.00
28763;DHT22;15918;51.270;6.522;2023-12-14T09:20:00;11.00;73.10
28763;DHT22;15918;51.270;6.522;2023-12-14T09:22:26;11.00;73.10
28763;DHT22;15918;51.270;6.522;2023-12-14T09:24:52;11.00;73.10
28763;DHT22;15918;51.270;6.522;2023-12-14T09:27:18;11.00;73.00
28763;DHT22;15918;51.270;6.522;2023-12-14T09:29:43;11.00;73.00
28763;DHT22;15918;51.270;6.522;2023-12-14T09:32:09;11.00;72.40
28763;DHT22;15918;51.270;6.522;2023-12-14T09:34:35;11.00;72.40
28763;DHT22;15918;51.270;6.522;2023-12-14T09:37:00;11.00;72.60
28763;DHT22;15918;51.270;6.522;2023-12-14T09:39:26;11.00;72.70
28763;DHT22;15918;51.270;6.522;2023-12-14T09:42:03;11.00;72.70
28763;DHT22;15918;51.270;6.522;2023-12-14T09:44:30;11.00;72.60
28763;DHT22;15918;51.270;6.522;2023-12-14T09:46:58;11.00;72.80
28763;DHT22;15918;51.270;6.522;2023-12-14T09:49:26;11.00;72.80
28763;DHT22;15918;51.270;6.522;2023-12-14T09:51:55;11.00;72.90
28763;DHT22;15918;51.270;6.522;2023-12-14T09:54:20;11.00;72.80
28763;DHT22;15918;51.270;6.522;2023-12-14T09:56:47;11.00;72.80
28763;DHT22;15918;51.270;6.522;2023-12-14T09:59:13;11.00;72.90
28763;DHT22;15918;51.270;6.522;2023-12-14T10:01:38;11.00;72.90
28763;DHT22;15918;51.270;6.522;2023-12-14T10:04:09;11.00;72.90
28763;DHT22;15918;51.270;6.522;2023-12-14T10:06:35;11.00;73.50
28763;DHT22;15918;51.270;6.522;2023-12-14T10:09:01;11.00;72.90
28763;DHT22;15918;51.270;6.522;2023-12-14T10:11:27;11.00;72.80
28763;DHT22;15918;51.270;6.522;2023-12-14T10:13:52;11.00;72.80
28763;DHT22;15918;51.270;6.522;2023-12-14T10:16:31;11.00;72.80
28763;DHT22;15918;51.270;6.522;2023-12-14T10:18:58;11.00;72.60
28763;DHT22;15918;51.270;6.522;2023-12-14T10:21:27;10.90;72.80
28763;DHT22;15918;51.270;6.522;2023-12-14T10:23:57;10.90;72.80
28763;DHT22;15918;51.270;6.522;2023-12-14T10:26:25;11.00;72.80
28763;DHT22;15918;51.270;6.522;2023-12-14T10:28:52;11.00;72.80
28763;DHT22;15918;51.270;6.522;2023-12-14T10:31:18;11.00;72.80
28763;DHT22;15918;51.270;6.522;2023-12-14T10:33:47;10.90;72.70
28763;DHT22;15918;51.270;6.522;2023-12-14T10:36:14;10.90;72.80
28763;DHT22;15918;51.270;6.522;2023-12-14T10:38:40;11.00;72.90
28763;DHT22;15918;51.270;6.522;2023-12-14T10:41:07;11.00;73.00
28763;DHT22;15918;51.270;6.522;2023-12-14T10:43:36;11.00;73.00
28763;DHT22;15918;51.270;6.522;2023-12-14T10:46:04;11.00;73.00
28763;DHT22;15918;51.270;6.522;2023-12-14T10:48:31;11.00;73.00
28763;DHT22;15918;51.270;6.522;2023-12-14T10:50:59;10.90;73.00
28763;DHT22;15918;51.270;6.522;2023-12-14T10:53:26;10.90;73.10
28763;DHT22;15918;51.270;6.522;2023-12-14T10:55:53;11.00;73.20
28763;DHT22;15918;51.270;6.522;2023-12-14T10:58:20;10.90;73.10
28763;DHT22;15918;51.270;6.522;2023-12-14T11:01:00;11.00;73.20
28763;DHT22;15918;51.270;6.522;2023-12-14T11:03:35;11.00;73.20
28763;DHT22;15918;51.270;6.522;2023-12-14T11:06:01;11.00;73.30
28763;DHT22;15918;51.270;6.522;2023-12-14T11:08:27;10.90;73.40
28763;DHT22;15918;51.270;6.522;2023-12-14T11:10:54;10.90;73.30
28763;DHT22;15918;51.270;6.522;2023-12-14T11:13:23;10.90;73.30
28763;DHT22;15918;51.270;6.522;2023-12-14T11:15:51;11.00;73.30
28763;DHT22;15918;51.270;6.522;2023-12-14T11:18:20;11.00;73.40
28763;DHT22;15918;51.270;6.522;2023-12-14T11:21:06;11.00;73.30
28763;DHT22;15918;51.270;6.522;2023-12-14T11:23:32;11.00;73.10
28763;DHT22;15918;51.270;6.522;2023-12-14T11:26:04;10.90;73.50
28763;DHT22;15918;51.270;6.522;2023-12-14T11:28:31;10.90;73.30
28763;DHT22;15918;51.270;6.522;2023-12-14T11:30:57;10.90;73.40
28763;DHT22;15918;51.270;6.522;2023-12-14T11:33:23;10.90;73.40
28763;DHT22;15918;51.270;6.522;2023-12-14T11:35:51;10.90;73.40
28763;DHT22;15918;51.270;6.522;2023-12-14T11:38:18;10.90;73.30
28763;DHT22;15918;51.270;6.522;2023-12-14T11:40:47;10.90;73.30
28763;DHT22;15918;51.270;6.522;2023-12-14T11:43:13;10.90;73.20
28763;DHT22;15918;51.270;6.522;2023-12-14T11:45:41;10.90;73.20
28763;DHT22;15918;51.270;6.522;2023-12-14T11:48:08;10.90;73.10
28763;DHT22;15918;51.270;6.522;2023-12-14T11:50:39;10.90;73.90
28763;DHT22;15918;51.270;6.522;2023-12-14T11:53:06;10.90;73.20
28763;DHT22;15918;51.270;6.522;2023-12-14T11:55:34;10.90;73.30
28763;DHT22;15918;51.270;6.522;2023-12-14T11:58:00;10.90;73.20
28763;DHT22;15918;51.270;6.522;2023-12-14T12:00:27;10.90;73.10
28763;DHT22;15918;51.270;6.522;2023-12-14T12:05:45;10.90;72.90
28763;DHT22;15918;51.270;6.522;2023-12-14T12:08:12;10.90;73.20
28763;DHT22;15918;51.270;6.522;2023-12-14T12:10:39;10.90;73.20
28763;DHT22;15918;51.270;6.522;2023-12-14T12:13:11;10.90;73.10
28763;DHT22;15918;51.270;6.522;2023-12-14T12:15:37;10.90;73.00
28763;DHT22;15918;51.270;6.522;2023-12-14T12:18:07;10.90;73.10
28763;DHT22;15918;51.270;6.522;2023-12-14T12:20:33;10.90;73.00
28763;DHT22;15918;51.270;6.522;2023-12-14T12:22:59;10.90;73.00
28763;DHT22;15918;51.270;6.522;2023-12-14T12:25:25;10.90;72.90
28763;DHT22;15918;51.270;6.522;2023-12-14T12:27:52;10.90;72.90
28763;DHT22;15918;51.270;6.522;2023-12-14T12:30:17;10.90;72.90
28763;DHT22;15918;51.270;6.522;2023-12-14T12:32:43;10.90;72.90
28763;DHT22;15918;51.270;6.522;2023-12-14T12:35:09;10.90;72.90
28763;DHT22;15918;51.270;6.522;2023-12-14T12:37:35;10.90;72.90
28763;DHT22;15918;51.270;6.522;2023-12-14T12:40:00;10.90;72.80
28763;DHT22;15918;51.270;6.522;2023-12-14T12:42:26;10.90;72.80
28763;DHT22;15918;51.270;6.522;2023-12-14T12:44:52;10.90;72.90
28763;DHT22;15918;51.270;6.522;2023-12-14T12:47:17;10.90;72.90
28763;DHT22;15918;51.270;6.522;2023-12-14T12:49:43;10.90;72.90
28763;DHT22;15918;51.270;6.522;2023-12-14T12:52:09;10.90;73.10
28763;DHT22;15918;51.270;6.522;2023-12-14T12:54:35;10.90;73.00
28763;DHT22;15918;51.270;6.522;2023-12-14T12:57:00;10.90;73.00
28763;DHT22;15918;51.270;6.522;2023-12-14T12:59:26;10.90;73.00
28763;DHT22;15918;51.270;6.522;2023-12-14T13:01:52;10.90;73.00
28763;DHT22;15918;51.270;6.522;2023-12-14T13:04:19;10.90;73.00
28763;DHT22;15918;51.270;6.522;2023-12-14T13:06:49;10.80;72.90
28763;DHT22;15918;51.270;6.522;2023-12-14T13:09:16;10.80;72.90
28763;DHT22;15918;51.270;6.522;2023-12-14T13:11:43;10.80;72.80
28763;DHT22;15918;51.270;6.522;2023-12-14T13:14:09;10.80;72.80
28763;DHT22;15918;51.270;6.522;2023-12-14T13:16:36;10.80;72.80
28763;DHT22;15918;51.270;6.522;2023-12-14T13:19:02;10.80;72.80
28763;DHT22;15918;51.270;6.522;2023-12-14T13:21:30;10.80;72.80
28763;DHT22;15918;51.270;6.522;2023-12-14T13:23:55;10.80;73.50
28763;DHT22;15918;51.270;6.522;2023-12-14T13:26:26;10.80;72.70
28763;DHT22;15918;51.270;6.522;2023-12-14T13:28:52;10.80;72.60
28763;DHT22;15918;51.270;6.522;2023-12-14T13:31:18;10.80;72.60
28763;DHT22;15918;51.270;6.522;2023-12-14T13:33:45;10.80;72.70
28763;DHT22;15918;51.270;6.522;2023-12-14T13:36:11;10.80;72.60
28763;DHT22;15918;51.270;6.522;2023-12-14T13:38:37;10.80;72.70
28763;DHT22;15918;51.270;6.522;2023-12-14T13:41:03;10.80;72.60
28763;DHT22;15918;51.270;6.522;2023-12-14T13:43:29;10.80;72.60
28763;DHT22;15918;51.270;6.522;2023-12-14T13:45:55;10.80;72.50
28763;DHT22;15918;51.270;6.522;2023-12-14T13:48:24;10.80;72.50
28763;DHT22;15918;51.270;6.522;2023-12-14T13:50:50;10.80;72.40
28763;DHT22;15918;51.270;6.522;2023-12-14T13:53:15;10.80;72.40
28763;DHT22;15918;51.270;6.522;2023-12-14T13:55:41;10.80;72.20
28763;DHT22;15918;51.270;6.522;2023-12-14T13:58:07;10.70;71.90
28763;DHT22;15918;51.270;6.522;2023-12-14T14:00:32;10.70;72.00
28763;DHT22;15918;51.270;6.522;2023-12-14T14:03:02;10.70;72.10
28763;DHT22;15918;51.270;6.522;2023-12-14T14:05:32;10.70;72.10
28763;DHT22;15918;51.270;6.522;2023-12-14T14:07:58;10.70;72.10
28763;DHT22;15918;51.270;6.522;2023-12-14T14:10:24;10.70;72.10
28763;DHT22;15918;51.270;6.522;2023-12-14T14:12:49;10.70;72.00
28763;DHT22;15918;51.270;6.522;2023-12-14T14:15:16;10.70;72.10
28763;DHT22;15918;51.270;6.522;2023-12-14T14:17:41;10.70;72.10
28763;DHT22;15918;51.270;6.522;2023-12-14T14:20:07;10.70;71.90
28763;DHT22;15918;51.270;6.522;2023-12-14T14:22:36;10.70;72.00
28763;DHT22;15918;51.270;6.522;2023-12-14T14:25:02;10.70;72.00
28763;DHT22;15918;51.270;6.522;2023-12-14T14:27:28;10.70;72.00
28763;DHT22;15918;51.270;6.522;2023-12-14T14:29:53;10.70;72.10
28763;DHT22;15918;51.270;6.522;2023-12-14T14:32:21;10.70;72.10
28763;DHT22;15918;51.270;6.522;2023-12-14T14:34:47;10.70;72.20
28763;DHT22;15918;51.270;6.522;2023-12-14T14:37:13;10.70;72.10
28763;DHT22;15918;51.270;6.522;2023-12-14T14:39:38;10.70;71.90
28763;DHT22;15918;51.270;6.522;2023-12-14T14:42:08;10.70;71.90
28763;DHT22;15918;51.270;6.522;2023-12-14T14:44:34;10.70;71.60
28763;DHT22;15918;51.270;6.522;2023-12-14T14:46:59;10.70;71.50
28763;DHT22;15918;51.270;6.522;2023-12-14T14:49:25;10.70;71.70
28763;DHT22;15918;51.270;6.522;2023-12-14T14:51:51;10.70;71.70
28763;DHT22;15918;51.270;6.522;2023-12-14T14:54:16;10.70;71.60
28763;DHT22;15918;51.270;6.522;2023-12-14T14:56:43;10.70;71.70
28763;DHT22;15918;51.270;6.522;2023-12-14T14:59:09;10.70;71.70
28763;DHT22;15918;51.270;6.522;2023-12-14T15:01:37;10.70;71.60
28763;DHT22;15918;51.270;6.522;2023-12-14T15:04:02;10.70;71.60
28763;DHT22;15918;51.270;6.522;2023-12-14T15:06:28;10.60;71.50
28763;DHT22;15918;51.270;6.522;2023-12-14T15:08:54;10.70;71.60
28763;DHT22;15918;51.270;6.522;2023-12-14T15:11:19;10.60;71.50
28763;DHT22;15918;51.270;6.522;2023-12-14T15:13:45;10.60;71.40
28763;DHT22;15918;51.270;6.522;2023-12-14T15:16:10;10.60;71.40
28763;DHT22;15918;51.270;6.522;2023-12-14T15:18:37;10.60;71.50
28763;DHT22;15918;51.270;6.522;2023-12-14T15:21:10;10.60;71.40
28763;DHT22;15918;51.270;6.522;2023-12-14T15:23:35;10.60;71.50
28763;DHT22;15918;51.270;6.522;2023-12-14T15:26:02;10.60;71.50